Time;durP1;ratioP1;P1;durP2;ratioP2;P2;SDS_P1;SDS_P2;PMS_P1;PMS_P2;Temp;Humidity;BMP_temperature;BMP_pressure;BME280_temperature;BME280_humidity;BME280_pressure;Samples;Min_cycle;Max_cycle;Signal;HPM_P1;HPM_P2
2024/03/09 00:00:50;;;;;;;5.03;3.50;;;;;;;-3.14;96.02;102210.94;5039122;28;20080;-70
2024/03/09 00:03:19;;;;;;;7.63;4.23;;;;;;;-3.32;95.91;102177.53;5042599;28;20067;-69
2024/03/09 00:05:45;;;;;;;7.45;3.00;;;;;;;-3.18;96.03;102212.78;5045830;28;20045;-71
2024/03/09 00:08:11;;;;;;;6.28;3.25;;;;;;;-3.16;96.22;102213.59;5049472;28;20133;-70
2024/03/09 00:10:37;;;;;;;15.95;3.33;;;;;;;-3.27;96.88;102194.75;5036325;28;20041;-66
2024/03/09 00:13:10;;;;;;;7.75;3.17;;;;;;;-3.30;96.65;102193.97;5039997;28;20032;-67
2024/03/09 00:15:35;;;;;;;5.28;3.30;;;;;;;-3.40;97.19;102174.28;5052271;28;20052;-71
2024/03/09 00:18:01;;;;;;;5.07;2.90;;;;;;;-3.20;97.05;102211.94;5075906;28;20049;-71
2024/03/09 00:20:34;;;;;;;7.53;4.37;;;;;;;-3.36;97.29;102178.50;5046027;28;20040;-69
2024/03/09 00:23:00;;;;;;;4.70;3.33;;;;;;;-3.38;96.90;102170.75;5047022;28;20033;-66
2024/03/09 00:25:28;;;;;;;9.30;4.53;;;;;;;-3.67;96.88;102131.56;5042470;28;20041;-70
2024/03/09 00:27:57;;;;;;;6.35;2.88;;;;;;;-3.21;97.90;102215.44;5051931;28;20084;-69
2024/03/09 00:30:24;;;;;;;11.52;4.20;;;;;;;-3.38;97.77;102191.56;5040976;28;20051;-72
2024/03/09 00:32:54;;;;;;;11.20;5.03;;;;;;;-3.35;97.47;102193.25;5046849;28;20401;-67
2024/03/09 00:35:27;;;;;;;5.57;3.58;;;;;;;-3.27;97.80;102209.53;5043806;28;20484;-70
2024/03/09 00:37:53;;;;;;;8.05;4.10;;;;;;;-3.29;98.48;102208.72;5031744;28;20036;-69
2024/03/09 00:40:19;;;;;;;6.07;3.65;;;;;;;-3.35;98.45;102206.28;5036487;28;20041;-70
2024/03/09 00:42:48;;;;;;;8.10;3.77;;;;;;;-3.27;98.93;102214.75;5043077;28;20469;-68
2024/03/09 00:45:15;;;;;;;5.05;3.00;;;;;;;-3.30;98.16;102215.66;5041810;28;20222;-68
2024/03/09 00:47:46;;;;;;;5.53;3.13;;;;;;;-3.31;98.74;102226.13;5046252;28;20048;-68
2024/03/09 00:50:15;;;;;;;8.25;3.38;;;;;;;-3.64;99.16;102166.19;5040157;28;20033;-68
2024/03/09 00:52:41;;;;;;;5.40;3.17;;;;;;;-3.33;98.78;102220.97;5038361;28;20409;-67
2024/03/09 00:55:10;;;;;;;9.43;3.28;;;;;;;-3.36;99.04;102215.84;5037487;28;20037;-68
2024/03/09 00:57:46;;;;;;;5.53;3.80;;;;;;;-3.38;99.01;102217.63;5033513;28;20048;-67
2024/03/09 01:00:16;;;;;;;8.05;3.22;;;;;;;-3.63;99.17;102175.69;5040151;28;20037;-70
2024/03/09 01:02:44;;;;;;;7.32;3.47;;;;;;;-3.41;99.68;102225.53;5026936;28;20405;-65
2024/03/09 01:05:10;;;;;;;13.45;4.55;;;;;;;-3.63;99.46;102175.69;5041904;28;20041;-71
2024/03/09 01:07:37;;;;;;;5.60;3.83;;;;;;;-3.57;99.94;102198.13;5041192;28;20083;-68
2024/03/09 01:10:07;;;;;;;5.07;3.42;;;;;;;-3.43;99.58;102214.28;5039747;28;20044;-67
2024/03/09 01:12:36;;;;;;;6.50;3.20;;;;;;;-3.40;99.84;102215.97;5034963;28;20051;-70
2024/03/09 01:15:14;;;;;;;4.68;3.10;;;;;;;-3.60;100.00;102182.56;5034094;28;20131;-70
2024/03/09 01:17:40;;;;;;;8.80;3.80;;;;;;;-3.42;99.55;102217.75;5041911;28;20071;-69
2024/03/09 01:20:07;;;;;;;9.53;3.90;;;;;;;-3.61;99.87;102186.94;5039034;28;20053;-67
2024/03/09 01:22:36;;;;;;;9.75;6.00;;;;;;;-4.01;100.00;102129.78;5043455;28;20048;-67
2024/03/09 01:25:04;;;;;;;7.88;4.88;;;;;;;-3.84;100.00;102161.44;5043852;28;20060;-70
2024/03/09 01:27:32;;;;;;;16.77;4.90;;;;;;;-3.73;100.00;102173.38;5051435;28;20048;-68
2024/03/09 01:30:01;;;;;;;5.78;3.63;;;;;;;-3.71;100.00;102177.66;5042398;28;20057;-70
2024/03/09 01:32:29;;;;;;;5.90;3.47;;;;;;;-3.53;100.00;102208.41;5041670;28;20044;-70
2024/03/09 01:34:55;;;;;;;5.47;3.80;;;;;;;-3.48;100.00;102210.91;5046612;28;20060;-69
2024/03/09 01:37:22;;;;;;;8.60;3.87;;;;;;;-3.49;99.87;102204.00;5040616;28;20469;-68
2024/03/09 01:39:48;;;;;;;6.70;3.63;;;;;;;-3.60;100.00;102196.44;5042284;28;20043;-66
2024/03/09 01:42:18;;;;;;;4.80;2.80;;;;;;;-3.69;100.00;102175.84;5040849;28;20041;-69
2024/03/09 01:44:48;;;;;;;9.52;4.43;;;;;;;-3.52;100.00;102210.13;5032239;28;20045;-68
2024/03/09 01:47:17;;;;;;;5.50;3.05;;;;;;;-3.59;100.00;102198.16;5041359;28;20049;-68
2024/03/09 01:49:44;;;;;;;;;;;;;;;-3.49;100.00;102202.25;5035850;28;20618;-71
2024/03/09 01:52:11;;;;;;;;;;;;;;;-3.47;100.00;102213.50;5044001;28;19928;-66
2024/03/09 01:54:38;;;;;;;;;;;;;;;-3.45;99.73;102211.72;5048451;28;19921;-69
2024/03/09 01:57:04;;;;;;;;;;;;;;;-3.48;99.58;102214.38;5036686;28;20411;-70
2024/03/09 01:59:29;;;;;;;;;;;;;;;-3.48;100.00;102198.75;5037670;28;19916;-69
2024/03/09 02:01:55;;;;;;;;;;;;;;;-3.45;99.74;102209.13;5039101;28;19971;-70
2024/03/09 02:04:26;;;;;;;;;;;;;;;-3.45;99.86;102209.13;5044166;28;20442;-68
2024/03/09 02:06:51;;;;;;;;;;;;;;;-3.41;98.95;102214.25;5042099;28;19971;-71
2024/03/09 02:09:18;;;;;;;;;;;;;;;-3.41;99.03;102209.03;5045095;28;19948;-68
2024/03/09 02:11:47;;;;;;;;;;;;;;;-3.40;99.03;102197.72;5042049;28;19925;-71
2024/03/09 02:14:13;;;;;;;;;;;;;;;-3.41;99.21;102211.63;5042212;28;19932;-71
2024/03/09 02:16:41;;;;;;;;;;;;;;;-3.43;98.37;102203.88;5040238;28;19920;-72
2024/03/09 02:19:08;;;;;;;;;;;;;;;-3.44;98.45;102202.16;5042325;28;19927;-70
2024/03/09 02:21:35;;;;;;;;;;;;;;;-3.44;98.73;102213.44;5035858;28;19921;-72
2024/03/09 02:24:07;;;;;;;;;;;;;;;-3.44;98.02;102202.16;5047318;28;20016;-71
2024/03/09 02:26:37;;;;;;;;;;;;;;;-3.43;97.99;102211.69;5044002;28;19959;-69
2024/03/09 02:29:03;;;;;;;;;;;;;;;-3.48;97.92;102205.69;5044323;28;19921;-70
2024/03/09 02:31:28;;;;;;;;;;;;;;;-3.48;97.97;102203.94;5045647;28;19945;-68
2024/03/09 02:33:55;;;;;;;;;;;;;;;-3.49;98.12;102202.25;5050849;28;20031;-69
2024/03/09 02:36:27;;;;;;;;;;;;;;;-3.47;98.28;102208.31;5043998;28;20318;-67
2024/03/09 02:38:54;;;;;;;;;;;;;;;-3.45;97.88;102203.91;5026349;28;20024;-68
2024/03/09 02:41:20;;;;;;;;;;;;;;;-3.46;97.83;102199.59;5026133;28;19925;-67
2024/03/09 02:43:49;;;;;;;;;;;;;;;-3.45;97.31;102203.91;5044729;28;19917;-67
2024/03/09 02:46:18;;;;;;;;;;;;;;;-3.47;97.40;102199.59;5046043;28;19959;-66
2024/03/09 02:48:44;;;;;;;;;;;;;;;-3.47;97.40;102203.09;5039148;28;20444;-67
2024/03/09 02:51:12;;;;;;;;;;;;;;;-3.48;97.45;102198.75;5040875;28;20308;-67
2024/03/09 02:53:37;;;;;;;;;;;;;;;-3.50;97.61;102195.31;5045416;28;20671;-67
2024/03/09 02:56:09;;;;;;;;;;;;;;;-3.49;97.29;102194.44;5042941;28;20451;-70
2024/03/09 02:58:34;;;;;;;;;;;;;;;-3.48;97.75;102200.50;5058085;28;19925;-65
2024/03/09 03:00:59;;;;;;;;;;;;;;;-3.49;97.01;102194.44;5044966;28;20456;-69
2024/03/09 03:06:18;;;;;;;;;;;;;;;-3.51;97.18;102195.38;5063974;28;19928;-70
2024/03/09 03:08:53;;;;;;;;;;;;;;;-3.53;97.03;102198.00;5056410;28;19945;-70
2024/03/09 03:11:22;;;;;;;;;;;;;;;-3.53;96.90;102198.00;5059566;28;19987;-69
2024/03/09 03:13:48;;;;;;;;;;;;;;;-3.58;97.53;102191.22;5056161;28;19921;-69
2024/03/09 03:16:26;;;;;;;;;;;;;;;-3.57;97.73;102196.38;5061200;28;19921;-67
2024/03/09 03:18:51;;;;;;;;;;;;;;;-3.59;97.54;102190.34;5058236;28;19920;-67
2024/03/09 03:21:18;;;;;;;;;;;;;;;-3.59;97.59;102192.09;5056952;28;19921;-70
2024/03/09 03:23:47;;;;;;;;;;;;;;;-3.60;97.61;102193.84;5059352;28;19928;-71
2024/03/09 03:26:14;;;;;;;;;;;;;;;-3.63;96.93;102191.31;5030735;28;19925;-68
2024/03/09 03:28:44;;;;;;;;;;;;;;;-3.66;97.05;102199.22;5055113;28;19967;-71
2024/03/09 03:31:10;;;;;;;;;;;;;;;-3.67;97.45;102200.09;5056130;28;19927;-66
2024/03/09 03:33:38;;;;;;;;;;;;;;;-3.67;97.32;102192.28;5057410;28;19917;-67
2024/03/09 03:36:06;;;;;;;;;;;;;;;-3.66;97.08;102186.19;5045975;28;20012;-71
2024/03/09 03:38:34;;;;;;;;;;;;;;;-3.67;97.34;102202.72;5037892;28;19917;-65
2024/03/09 03:41:00;;;;;;;;;;;;;;;-3.71;97.28;102185.44;5045398;28;19924;-67
2024/03/09 03:43:26;;;;;;;;;;;;;;;-3.73;97.84;102200.25;5044989;28;20436;-70
2024/03/09 03:45:51;;;;;;;;;;;;;;;-3.72;97.69;102204.56;5045137;28;19975;-66
2024/03/09 03:48:16;;;;;;;;;;;;;;;-3.71;97.56;102197.63;5040864;28;19979;-68
2024/03/09 03:50:43;;;;;;;;;;;;;;;-3.75;97.83;102196.84;5055873;28;19917;-66
2024/03/09 03:53:09;;;;;;;;;;;;;;;-3.75;97.44;102207.25;5061782;28;19959;-66
2024/03/09 03:55:37;;;;;;;;;;;;;;;-3.75;97.99;102205.50;5042516;28;20444;-70
2024/03/09 03:58:03;;;;;;;;;;;;;;;-3.72;96.91;102199.38;5043652;28;20330;-66
2024/03/09 04:00:28;;;;;;;;;;;;;;;-3.71;97.36;102197.63;5044287;28;19966;-66
2024/03/09 04:02:54;;;;;;;;;;;;;;;-3.72;97.06;102201.97;5049565;28;20461;-71
2024/03/09 04:05:20;;;;;;;;;;;;;;;-3.66;96.18;102199.22;5043024;28;19924;-67
2024/03/09 04:07:45;;;;;;;;;;;;;;;-3.59;96.47;102205.13;5041751;28;19921;-66
2024/03/09 04:10:14;;;;;;;;;;;;;;;-3.52;95.71;102204.94;5043594;28;19921;-66
2024/03/09 04:12:40;;;;;;;;;;;;;;;-3.49;95.93;102198.78;5041828;28;20019;-68
2024/03/09 04:15:07;;;;;;;;;;;;;;;-3.42;95.57;102209.94;5058886;28;19948;-66
2024/03/09 04:17:32;;;;;;;;;;;;;;;-3.35;96.08;102196.72;5053984;28;19924;-68
2024/03/09 04:19:57;;;;;;;;;;;;;;;-3.28;95.25;102202.59;5046081;28;19921;-65
2024/03/09 04:22:24;;;;;;;;;;;;;;;-3.21;95.31;102202.41;5043010;28;20551;-71
2024/03/09 04:24:49;;;;;;;;;;;;;;;-3.10;94.65;102202.16;5042664;28;19920;-67
2024/03/09 04:27:15;;;;;;;;;;;;;;;-3.07;93.81;102199.44;5053782;28;20043;-68
2024/03/09 04:29:42;;;;;;;;;;;;;;;-3.05;93.81;102200.25;5052144;28;19979;-66
2024/03/09 04:32:07;;;;;;;;;;;;;;;-2.98;93.57;102196.59;5041498;28;20331;-67
2024/03/09 04:34:34;;;;;;;;;;;;;;;-2.93;93.22;102196.47;5045874;28;19921;-67
2024/03/09 04:36:59;;;;;;;;;;;;;;;-2.86;93.05;102198.03;5042663;28;19922;-67
2024/03/09 04:39:25;;;;;;;;;;;;;;;-2.82;93.06;102203.13;5036537;28;19963;-67
2024/03/09 04:41:54;;;;;;;;;;;;;;;-2.78;92.13;102200.41;5042267;28;19928;-68
2024/03/09 04:44:19;;;;;;;;;;;;;;;-2.81;91.62;102199.63;5044505;28;19927;-66
2024/03/09 04:46:45;;;;;;;;;;;;;;;-2.76;91.64;102199.47;5048736;28;20019;-65
2024/03/09 04:49:11;;;;;;;;;;;;;;;-2.73;90.72;102206.34;5044572;28;19917;-71
2024/03/09 04:51:36;;;;;;;;;;;;;;;-2.72;89.48;102208.06;5041846;28;20263;-67
2024/03/09 04:54:01;;;;;;;;;;;;;;;-2.69;90.55;102201.00;5048111;28;19923;-67
2024/03/09 04:56:28;;;;;;;;;;;;;;;-2.64;90.53;102221.75;5044228;28;19920;-67
2024/03/09 04:58:53;;;;;;;;;;;;;;;-2.58;89.75;102211.16;5042192;28;19917;-66
2024/03/09 05:01:18;;;;;;;;;;;;;;;-2.53;89.80;102211.88;5037271;28;19943;-66
2024/03/09 05:03:44;;;;;;;;;;;;;;;-2.55;88.07;102211.94;5042694;28;20403;-68
2024/03/09 05:06:09;;;;;;;;;;;;;;;-2.55;87.98;102216.28;5034193;28;20372;-66
2024/03/09 05:08:36;;;;;;;;;;;;;;;-2.52;87.98;102216.19;5038423;28;19928;-67
2024/03/09 05:11:01;;;;;;;;;;;;;;;-2.40;88.68;102220.19;5046354;28;19952;-69
2024/03/09 05:13:26;;;;;;;;;;;;;;;-2.30;88.34;102219.91;5038484;28;19960;-66
2024/03/09 05:15:53;;;;;;;;;;;;;;;-2.14;87.72;102219.44;5037914;28;19920;-68
2024/03/09 05:18:19;;;;;;;;;;;;;;;-2.06;87.57;102217.44;5038000;28;20476;-69
2024/03/09 05:20:46;;;;;;;;;;;;;;;-2.04;86.16;102220.84;5035933;28;19928;-66
2024/03/09 05:23:12;;;;;;;;;;;;;;;-2.04;85.72;102220.84;5047539;28;19917;-67
2024/03/09 05:25:37;;;;;;;;;;;;;;;-2.01;85.88;102219.03;5046185;28;19916;-66
2024/03/09 05:28:03;;;;;;;;;;;;;;;-2.02;83.57;102221.69;5036005;28;19921;-66
2024/03/09 05:30:29;;;;;;;;;;;;;;;-2.01;84.91;102219.03;5045625;28;20455;-68
2024/03/09 05:32:57;;;;;;;;;;;;;;;-2.02;84.10;102213.88;5037480;28;19928;-67
2024/03/09 05:35:23;;;;;;;;;;;;;;;-2.06;82.46;102225.28;5038332;28;19921;-68
2024/03/09 05:37:51;;;;;;;;;;;;;;;-2.05;82.84;102224.38;5037349;28;19960;-70
2024/03/09 05:40:17;;;;;;;;;;;;;;;-2.00;83.99;102220.75;5024244;28;20412;-66
2024/03/09 05:42:44;;;;;;;;;;;;;;;-1.96;82.62;102218.91;5040183;28;19979;-65
2024/03/09 05:45:18;;;;;;;;;;;;;;;-1.90;83.10;102219.56;5040816;28;20010;-70
2024/03/09 05:47:54;;;;;;;;;;;;;;;-1.83;82.97;102227.19;5034697;28;19917;-64
2024/03/09 05:50:21;;;;;;;;;;;;;;;-1.76;83.45;102224.34;5038140;28;19927;-64
2024/03/09 05:52:52;;;;;;;;;;;;;;;-1.71;81.66;102226.81;5028069;28;19928;-67
2024/03/09 05:55:19;;;;;;;;;;;;;;;-1.78;81.57;102228.75;5046065;28;19921;-67
2024/03/09 05:57:48;;;;;;;;;;;;;;;-1.90;81.18;102227.38;5048386;28;19960;-69
2024/03/09 06:00:16;;;;;;;;;;;;;;;-1.84;81.52;102230.72;5046980;28;19920;-63
2024/03/09 06:02:42;;;;;;;;;;;;;;;-1.82;81.93;102229.75;5047437;28;20006;-68
2024/03/09 06:05:08;;;;;;;;;;;;;;;-1.77;81.74;102230.47;5048372;28;19968;-65
2024/03/09 06:07:40;;;;;;;;;;;;;;;-1.76;81.79;102232.16;5046427;28;19999;-65
2024/03/09 06:10:07;;;;;;;;;;;;;;;-1.71;82.30;102229.44;5036175;28;19968;-67
2024/03/09 06:12:34;;;;;;;;;;;;;;;-1.78;81.46;102230.50;5048273;28;19921;-67
2024/03/09 06:14:59;;;;;;;;;;;;;;;-1.70;82.67;102232.00;5051002;28;20014;-66
2024/03/09 06:17:25;;;;;;;;;;;;;;;-1.59;82.78;102237.72;5046255;28;19979;-68
2024/03/09 06:19:50;;;;;;;;;;;;;;;-1.57;81.92;102230.69;5090249;28;19967;-65
2024/03/09 06:22:16;;;;;;;;;;;;;;;-1.50;81.85;102225.25;5045033;28;20360;-66
2024/03/09 06:24:41;;;;;;;;;;;;;;;-1.44;81.14;102225.94;5053236;28;19969;-66
2024/03/09 06:27:09;;;;;;;;;;;;;;;-1.40;80.42;102231.91;5049072;28;19925;-68
2024/03/09 06:29:37;;;;;;;;;;;;;;;-1.37;80.64;102230.06;5046206;28;19924;-65
2024/03/09 06:32:05;;;;;;;;;;;;;;;-1.25;81.77;102226.16;5039910;28;20376;-67
2024/03/09 06:34:31;;;;;;;;;;;;;;;-1.10;82.09;102230.03;5040290;28;20304;-67
2024/03/09 06:36:56;;;;;;;;;;;;;;;-1.02;80.27;102222.78;5044824;28;19921;-68
2024/03/09 06:39:21;;;;;;;;;;;;;;;-1.00;80.31;102228.81;5036569;28;19921;-66
2024/03/09 06:41:49;;;;;;;;;;;;;;;-0.89;81.62;102224.06;5067165;28;20261;-64
2024/03/09 06:44:14;;;;;;;;;;;;;;;-0.75;81.08;102224.44;5042965;28;19925;-65
2024/03/09 06:46:40;;;;;;;;;;;;;;;-0.59;81.03;102232.56;5046475;28;20373;-67
2024/03/09 06:49:08;;;;;;;;;;;;;;;-0.47;79.52;102226.91;5041904;28;20087;-66
2024/03/09 06:51:33;;;;;;;;;;;;;;;-0.43;78.65;102225.88;5044425;28;19968;-66
2024/03/09 06:53:58;;;;;;;;;;;;;;;-0.36;77.95;102218.66;5051565;28;19963;-68
2024/03/09 06:56:26;;;;;;;;;;;;;;;-0.28;78.08;102218.41;5043069;28;19968;-67
2024/03/09 06:58:53;;;;;;;;;;;;;;;-0.17;78.01;102227.53;5038099;28;19927;-67
2024/03/09 07:01:21;;;;;;;;;;;;;;;-0.17;76.14;102229.31;5042084;28;20058;-69
2024/03/09 07:03:47;;;;;;;;;;;;;;;-0.22;75.76;102223.41;5047865;28;19917;-70
2024/03/09 07:06:12;;;;;;;;;;;;;;;-0.28;76.51;102218.41;5038925;28;19921;-68
2024/03/09 07:08:38;;;;;;;;;;;;;;;-0.49;75.96;102228.72;5044928;28;20007;-67
2024/03/09 07:11:04;;;;;;;;;;;;;;;-0.64;77.03;102229.28;5042175;28;20307;-64
2024/03/09 07:13:29;;;;;;;;;;;;;;;-0.66;77.87;102229.34;5040843;28;20381;-67
2024/03/09 07:15:55;;;;;;;;;;;;;;;-0.64;78.00;102224.03;5042126;28;19927;-65
2024/03/09 07:18:21;;;;;;;;;;;;;;;-0.52;77.98;102228.84;5042429;28;20347;-66
2024/03/09 07:20:47;;;;;;;;;;;;;;;-0.37;76.63;102228.28;5042869;28;20364;-67
2024/03/09 07:23:13;;;;;;;;;;;;;;;-0.30;76.19;102228.88;5045462;28;19925;-64
2024/03/09 07:25:38;;;;;;;;;;;;;;;-0.22;76.25;102223.41;5048346;28;19921;-64
2024/03/09 07:28:05;;;;;;;;;;;;;;;-0.11;75.00;102219.44;5043041;28;20398;-65
2024/03/09 07:30:32;;;;;;;;;;;;;;;-0.09;75.10;102219.38;5051591;28;19920;-68
2024/03/09 07:32:58;;;;;;;;;;;;;;;-0.03;75.57;102221.75;5035744;28;19917;-64
2024/03/09 07:35:33;;;;;;;;;;;;;;;0.12;75.03;102209.84;5035822;28;20384;-64
2024/03/09 07:37:59;;;;;;;;;;;;;;;0.26;74.32;102216.22;5037236;28;19921;-64
2024/03/09 07:40:24;;;;;;;;;;;;;;;0.38;74.89;102207.03;5046437;28;19960;-65
2024/03/09 07:42:52;;;;;;;;;;;;;;;0.54;75.31;102213.34;5028632;28;19917;-67
2024/03/09 07:45:18;;;;;;;;;;;;;;;0.54;70.99;102218.59;5043766;28;19916;-65
2024/03/09 07:47:45;;;;;;;;;;;;;;;0.47;70.59;102217.16;5044335;28;19928;-69
2024/03/09 07:50:14;;;;;;;;;;;;;;;0.36;71.02;102223.75;5046351;28;19920;-66
2024/03/09 07:52:49;;;;;;;;;;;;;;;0.37;71.27;102221.06;5038666;28;19922;-68
2024/03/09 07:55:20;;;;;;;;;;;;;;;0.33;70.07;102221.25;5044230;28;19928;-70
2024/03/09 07:57:52;;;;;;;;;;;;;;;0.45;72.04;102212.88;5046446;28;19917;-70
2024/03/09 08:00:19;;;;;;;;;;;;;;;0.41;70.62;102222.66;5042116;28;19920;-70
2024/03/09 08:02:47;;;;;;;;;;;;;;;0.40;70.22;102231.44;5041160;28;19921;-72
2024/03/09 08:05:16;;;;;;;;;;;;;;;0.48;69.25;102229.34;5042634;28;19978;-66
2024/03/09 08:07:43;;;;;;;;;;;;;;;0.39;67.54;102229.72;5047533;28;19916;-70
2024/03/09 08:10:09;;;;;;;;;;;;;;;0.41;68.42;102227.03;5043976;28;19917;-68
2024/03/09 08:12:36;;;;;;;;;;;;;;;0.50;69.07;102218.78;5047734;28;20476;-66
2024/03/09 08:15:04;;;;;;;;;;;;;;;0.69;70.05;102222.38;5050718;28;19974;-68
2024/03/09 08:17:30;;;;;;;;;;;;;;;0.73;68.20;102230.97;5040439;28;19917;-68
2024/03/09 08:19:55;;;;;;;;;;;;;;;0.64;66.39;102218.25;5041827;28;20344;-64
2024/03/09 08:22:22;;;;;;;;;;;;;;;0.48;65.75;102215.38;5041732;28;19924;-67
2024/03/09 08:24:47;;;;;;;;;;;;;;;0.52;67.23;102216.97;5040596;28;19928;-68
2024/03/09 08:27:14;;;;;;;;;;;;;;;0.76;68.66;102218.56;5042524;28;20304;-68
2024/03/09 08:29:40;;;;;;;;;;;;;;;1.06;68.34;102226.91;5035574;28;19921;-68
2024/03/09 08:32:05;;;;;;;;;;;;;;;1.27;68.25;102222.50;5043733;28;20472;-66
2024/03/09 08:34:31;;;;;;;;;;;;;;;1.43;66.69;102217.41;5035993;28;19921;-67
2024/03/09 08:36:59;;;;;;;;;;;;;;;1.53;66.44;102210.84;5043948;28;19920;-68
2024/03/09 08:39:25;;;;;;;;;;;;;;;1.65;66.71;102217.31;5035625;28;19917;-68
2024/03/09 08:41:51;;;;;;;;;;;;;;;1.67;63.79;102218.09;5037697;28;19921;-65
2024/03/09 08:44:19;;;;;;;;;;;;;;;1.46;60.61;102212.06;5048533;28;19923;-68
2024/03/09 08:46:44;;;;;;;;;;;;;;;1.41;64.07;102212.25;5069622;28;19921;-67
2024/03/09 08:49:09;;;;;;;;;;;;;;;1.50;64.38;102222.34;5039006;28;20381;-70
2024/03/09 08:51:36;;;;;;;;;;;;;;;1.53;63.55;102219.59;5041033;28;19921;-68
2024/03/09 08:54:01;;;;;;;;;;;;;;;1.52;64.09;102214.41;5040309;28;19982;-69
2024/03/09 08:56:27;;;;;;;;;;;;;;;1.65;64.12;102209.44;5041074;28;19921;-68
2024/03/09 08:58:52;;;;;;;;;;;;;;;1.58;61.44;102208.88;5042170;28;19920;-70
2024/03/09 09:01:17;;;;;;;;;;;;;;;1.49;63.31;102207.53;5046981;28;20003;-66
2024/03/09 09:03:43;;;;;;;;;;;;;;;1.65;62.35;102204.19;5046946;28;20375;-65
2024/03/09 09:06:09;;;;;;;;;;;;;;;1.52;61.08;102210.00;5037639;28;19962;-66
2024/03/09 09:08:36;;;;;;;;;;;;;;;1.51;62.17;102203.06;5034417;28;20311;-69
2024/03/09 09:11:02;;;;;;;;;;;;;;;1.44;60.23;102200.75;5035135;28;19944;-68
2024/03/09 09:13:27;;;;;;;;;;;;;;;1.45;60.22;102203.34;5035206;28;20272;-68
2024/03/09 09:15:52;;;;;;;;;;;;;;;1.55;62.76;102201.13;5038047;28;19921;-68
2024/03/09 09:18:18;;;;;;;;;;;;;;;1.46;58.70;102202.41;5038411;28;19928;-70
2024/03/09 09:20:48;;;;;;;;;;;;;;;1.46;60.56;102194.53;5034021;28;20396;-67
2024/03/09 09:23:14;;;;;;;;;;;;;;;1.54;61.74;102194.19;5035188;28;19924;-69
2024/03/09 09:25:39;;;;;;;;;;;;;;;1.73;57.52;102199.44;5038878;28;19927;-67
2024/03/09 09:28:06;;;;;;;;;;;;;;;1.65;55.13;102204.19;5031108;28;19925;-68
2024/03/09 09:30:32;;;;;;;;;;;;;;;1.43;55.18;102199.91;5035915;28;19921;-67
2024/03/09 09:32:58;;;;;;;;;;;;;;;1.34;56.34;102195.06;5039559;28;19963;-66
2024/03/09 09:35:23;;;;;;;;;;;;;;;1.33;56.23;102198.63;5046746;28;19921;-66
2024/03/09 09:37:48;;;;;;;;;;;;;;;1.36;56.37;102200.25;5036083;28;19939;-67
2024/03/09 09:40:14;;;;;;;;;;;;;;;1.47;56.87;102201.50;5040303;28;19925;-69
2024/03/09 09:42:42;;;;;;;;;;;;;;;1.31;49.64;102205.72;5041453;28;20024;-66
2024/03/09 09:45:07;;;;;;;;;;;;;;;1.36;54.45;102198.47;5034280;28;19932;-68
2024/03/09 09:47:33;;;;;;;;;;;;;;;1.52;55.08;102199.50;5034839;28;20019;-69
2024/03/09 09:49:59;;;;;;;;;;;;;;;1.53;50.31;102195.97;5038981;28;20376;-71
2024/03/09 09:52:24;;;;;;;;;;;;;;;1.49;51.35;102202.28;5038338;28;19921;-67
2024/03/09 09:54:52;;;;;;;;;;;;;;;1.48;49.41;102195.31;5041957;28;19935;-68
2024/03/09 09:57:18;;;;;;;;;;;;;;;1.59;52.72;102186.94;5045519;28;19952;-70
2024/03/09 09:59:46;;;;;;;;;;;;;;;1.75;52.51;102194.97;5038631;28;19916;-67
2024/03/09 10:02:12;;;;;;;;;;;;;;;1.90;52.32;102194.25;5037210;28;19917;-67
2024/03/09 10:04:38;;;;;;;;;;;;;;;2.00;47.99;102195.50;5038521;28;19927;-67
2024/03/09 10:07:10;;;;;;;;;;;;;;;1.92;48.31;102187.16;5039545;28;20019;-69
2024/03/09 10:09:36;;;;;;;;;;;;;;;1.83;49.28;102187.59;5041948;28;19924;-67
2024/03/09 10:12:02;;;;;;;;;;;;;;;1.68;47.68;102185.66;5037887;28;19928;-68
2024/03/09 10:14:31;;;;;;;;;;;;;;;1.52;49.45;102183.75;5041878;28;19917;-68
2024/03/09 10:17:09;;;;;;;;;;;;;;;1.64;49.88;102181.47;5044796;28;19970;-67
2024/03/09 10:19:35;;;;;;;;;;;;;;;1.88;48.17;102190.00;5007380;28;19916;-66
2024/03/09 10:22:08;;;;;;;;;;;;;;;1.90;49.81;102180.25;5044908;28;19921;-66
2024/03/09 10:24:34;;;;;;;;;;;;;;;1.63;47.51;102185.03;5042514;28;19943;-69
2024/03/09 10:27:10;;;;;;;;;;;;;;;1.54;48.39;102176.66;5045706;28;19921;-66
2024/03/09 10:29:36;;;;;;;;;;;;;;;1.45;48.91;102171.84;5042522;28;20294;-66
2024/03/09 10:32:07;;;;;;;;;;;;;;;1.43;49.47;102165.78;5038567;28;19921;-67
2024/03/09 10:34:33;;;;;;;;;;;;;;;1.47;50.75;102172.63;5034444;28;19920;-68
2024/03/09 10:37:01;;;;;;;;;;;;;;;1.52;50.31;102167.16;5043670;28;19982;-69
2024/03/09 10:39:27;;;;;;;;;;;;;;;1.65;52.17;102164.78;5048330;28;19928;-67
2024/03/09 10:41:54;;;;;;;;;;;;;;;1.73;51.32;102167.91;5037951;28;19921;-68
2024/03/09 10:44:20;;;;;;;;;;;;;;;1.74;51.79;102161.75;5045344;28;19920;-68
2024/03/09 10:46:47;;;;;;;;;;;;;;;1.70;52.10;102168.06;5039815;28;19928;-69
2024/03/09 10:49:18;;;;;;;;;;;;;;;1.71;51.98;102156.63;5036075;28;19977;-68
2024/03/09 10:51:51;;;;;;;;;;;;;;;1.58;50.94;102164.22;5036244;28;19921;-72
2024/03/09 10:54:18;;;;;;;;;;;;;;;1.49;49.72;102165.50;5041162;28;19928;-70
2024/03/09 10:56:45;;;;;;;;;;;;;;;1.37;49.96;102159.94;5040600;28;20280;-68
2024/03/09 10:59:13;;;;;;;;;;;;;;;1.31;51.34;102158.47;5038189;28;20299;-70
2024/03/09 11:01:39;;;;;;;;;;;;;;;1.38;52.91;102159.03;5038639;28;19921;-70
2024/03/09 11:04:05;;;;;;;;;;;;;;;1.45;53.84;102160.47;5037128;28;20399;-70
2024/03/09 11:06:32;;;;;;;;;;;;;;;1.51;54.74;102157.56;5035362;28;20343;-71
2024/03/09 11:08:59;;;;;;;;;;;;;;;1.51;54.78;102160.19;5038506;28;19917;-70
2024/03/09 11:11:26;;;;;;;;;;;;;;;1.54;55.67;102154.78;5037939;28;19953;-65
2024/03/09 11:13:53;;;;;;;;;;;;;;;1.61;55.74;102160.59;5035995;28;19964;-65
2024/03/09 11:16:24;;;;;;;;;;;;;;;1.58;55.13;102158.13;5035942;28;20047;-66
2024/03/09 11:18:56;;;;;;;;;;;;;;;1.50;54.18;102150.63;5036983;28;20522;-67
2024/03/09 11:21:34;;;;;;;;;;;;;;;1.49;54.69;102152.38;5038059;28;20377;-66
2024/03/09 11:24:07;;;;;;;;;;;;;;;1.50;53.73;102161.97;5036983;28;19925;-67
2024/03/09 11:26:52;;;;;;;;;;;;;;;1.54;53.46;102158.28;5038888;28;19921;-69
2024/03/09 11:29:27;;;;;;;;;;;;;;;1.45;52.12;102156.06;5038378;28;19920;-73
2024/03/09 11:31:57;;;;;;;;;;;;;;;1.49;53.17;102152.38;5044703;28;19924;-68
2024/03/09 11:34:22;;;;;;;;;;;;;;;1.53;52.91;102151.31;5042363;28;19956;-67
2024/03/09 11:36:52;;;;;;;;;;;;;;;1.57;52.90;102153.81;5025760;28;19921;-67
2024/03/09 11:39:28;;;;;;;;;;;;;;;1.53;52.67;102148.69;5050470;28;20371;-68
2024/03/09 11:41:54;;;;;;;;;;;;;;;1.60;52.14;102140.53;5038793;28;19966;-70
2024/03/09 11:44:22;;;;;;;;;;;;;;;1.55;51.80;102143.38;5040032;28;19916;-66
2024/03/09 11:46:47;;;;;;;;;;;;;;;1.51;51.45;102147.91;5034827;28;19964;-67
2024/03/09 11:49:14;;;;;;;;;;;;;;;1.54;51.78;102144.28;5040014;28;19963;-67
2024/03/09 11:51:39;;;;;;;;;;;;;;;1.51;52.33;102142.66;5042429;28;19917;-73
2024/03/09 11:54:08;;;;;;;;;;;;;;;1.53;52.35;102139.97;5042594;28;20437;-73
2024/03/09 11:56:34;;;;;;;;;;;;;;;1.52;51.42;102135.63;5049034;28;19924;-74
2024/03/09 11:59:00;;;;;;;;;;;;;;;1.50;49.76;102140.97;5053735;28;19916;-75
2024/03/09 12:01:25;;;;;;;;;;;;;;;1.48;50.61;102132.31;5044292;28;20354;-69
2024/03/09 12:03:51;;;;;;;;;;;;;;;1.53;51.44;102129.47;5042059;28;19916;-68
2024/03/09 12:06:17;;;;;;;;;;;;;;;1.70;51.06;102133.91;5042085;28;19971;-68
2024/03/09 12:08:42;;;;;;;;;;;;;;;1.79;51.21;102129.09;5039439;28;19921;-68
2024/03/09 12:11:08;;;;;;;;;;;;;;;1.80;48.52;102130.78;5042618;28;19920;-70
2024/03/09 12:13:33;;;;;;;;;;;;;;;1.81;50.39;102136.91;5039692;28;20446;-66
2024/03/09 12:15:59;;;;;;;;;;;;;;;1.78;51.25;102135.28;5035811;28;19921;-70
2024/03/09 12:18:25;;;;;;;;;;;;;;;1.77;51.07;102130.09;5039339;28;19932;-66
2024/03/09 12:20:50;;;;;;;;;;;;;;;1.78;51.42;102131.78;5043120;28;19916;-66
2024/03/09 12:23:18;;;;;;;;;;;;;;;1.89;49.86;102140.00;5035840;28;19927;-70
2024/03/09 12:25:44;;;;;;;;;;;;;;;1.80;49.59;102133.44;5043541;28;19921;-70
2024/03/09 12:28:12;;;;;;;;;;;;;;;1.69;49.07;102137.47;5034544;28;19920;-73
2024/03/09 12:30:39;;;;;;;;;;;;;;;1.51;48.77;102139.19;5040127;28;20023;-68